createdAt,value
2019-02-18T00:03:06.291Z,57.00
2019-02-18T00:07:14.449Z,56.40
2019-02-18T00:11:16.462Z,56.20
2019-02-18T00:15:19.469Z,56.00
2019-02-18T00:19:22.459Z,55.80
2019-02-18T00:23:25.447Z,55.90
2019-02-18T00:27:28.453Z,55.80
2019-02-18T00:31:31.435Z,56.10
2019-02-18T00:35:34.435Z,56.10
2019-02-18T00:39:37.429Z,56.80
2019-02-18T00:43:40.433Z,56.80
2019-02-18T00:47:43.434Z,56.80
2019-02-18T00:51:46.415Z,56.60
2019-02-18T00:55:49.414Z,56.80
2019-02-18T00:59:52.414Z,57.50
2019-02-18T01:03:55.411Z,58.70
2019-02-18T01:07:58.501Z,59.50
2019-02-18T01:12:01.499Z,58.40
2019-02-18T01:16:04.598Z,58.80
2019-02-18T01:20:10.383Z,58.30
2019-02-18T01:24:13.383Z,57.90
2019-02-18T01:28:17.384Z,57.60
2019-02-18T01:32:20.375Z,58.60
2019-02-18T01:36:23.364Z,60.30
2019-02-18T01:40:26.375Z,58.50
2019-02-18T01:44:29.367Z,58.00
2019-02-18T01:48:32.372Z,57.50
2019-02-18T01:52:35.358Z,58.00
2019-02-18T01:56:38.357Z,58.60
2019-02-18T02:00:41.360Z,60.40
2019-02-18T02:04:44.393Z,59.90
2019-02-18T02:08:48.207Z,58.60
2019-02-18T02:12:54.990Z,58.40
2019-02-18T02:16:57.993Z,58.20
2019-02-18T02:21:00.999Z,58.10
2019-02-18T02:25:04.305Z,58.10
2019-02-18T02:29:07.306Z,57.90
2019-02-18T02:33:10.302Z,57.90
2019-02-18T02:37:13.315Z,58.20
2019-02-18T02:41:16.339Z,58.20
2019-02-18T02:45:19.331Z,58.90
2019-02-18T02:49:22.321Z,59.00
2019-02-18T02:53:25.321Z,59.10
2019-02-18T02:57:28.657Z,59.10
2019-02-18T03:01:31.728Z,58.60
2019-02-18T03:05:34.715Z,58.20
2019-02-18T03:09:38.740Z,58.70
2019-02-18T03:13:41.773Z,58.80
2019-02-18T03:17:44.774Z,58.40
2019-02-18T03:21:47.862Z,58.10
2019-02-18T03:25:50.967Z,57.90
2019-02-18T03:30:17.753Z,58.40
2019-02-18T03:34:24.551Z,59.30
2019-02-18T03:38:31.409Z,61.10
2019-02-18T03:42:32.457Z,61.70
2019-02-18T03:46:35.453Z,63.00
2019-02-18T03:50:38.451Z,64.20
2019-02-18T03:54:41.682Z,64.50
2019-02-18T03:58:44.684Z,62.90
2019-02-18T04:02:47.907Z,62.90
2019-02-18T04:06:50.890Z,61.30
2019-02-18T04:10:55.055Z,60.10
2019-02-18T04:14:58.043Z,60.20
2019-02-18T04:19:01.072Z,60.40
2019-02-18T04:23:04.073Z,60.70
2019-02-18T04:27:07.058Z,60.70
2019-02-18T04:31:10.304Z,60.90
2019-02-18T04:35:13.316Z,60.80
2019-02-18T04:39:16.314Z,63.80
2019-02-18T04:43:19.367Z,63.50
2019-02-18T04:47:22.420Z,61.50
2019-02-18T04:51:25.427Z,61.90
2019-02-18T04:55:28.447Z,61.90
2019-02-18T04:59:31.473Z,60.80
2019-02-18T05:03:34.460Z,59.20
2019-02-18T05:07:37.478Z,59.90
2019-02-18T05:11:41.203Z,59.80
2019-02-18T05:15:44.214Z,60.30
2019-02-18T05:19:47.219Z,61.80
2019-02-18T05:23:50.264Z,60.70
2019-02-18T05:27:53.250Z,60.90
2019-02-18T05:31:56.268Z,60.80
2019-02-18T05:35:59.263Z,60.30
2019-02-18T05:40:03.982Z,60.10
2019-02-18T05:44:07.080Z,59.80
2019-02-18T05:48:10.084Z,60.70
2019-02-18T05:52:13.095Z,61.80
2019-02-18T05:56:16.107Z,63.30
2019-02-18T06:00:19.111Z,64.60
2019-02-18T06:04:22.099Z,64.10
2019-02-18T06:08:26.112Z,62.70
2019-02-18T06:12:30.217Z,62.90
2019-02-18T06:16:33.231Z,62.00
2019-02-18T06:20:36.227Z,61.80
2019-02-18T06:24:39.264Z,60.70
2019-02-18T06:28:42.279Z,61.30
2019-02-18T06:32:45.323Z,61.70
2019-02-18T06:36:48.308Z,60.90
2019-02-18T06:40:51.311Z,61.00
2019-02-18T06:44:56.219Z,61.00
2019-02-18T06:49:03.151Z,60.60
2019-02-18T06:53:06.150Z,61.30
2019-02-18T06:57:12.114Z,62.50
2019-02-18T07:01:29.376Z,61.80
2019-02-18T07:05:34.290Z,62.00
2019-02-18T07:09:39.223Z,62.30
2019-02-18T07:13:43.434Z,62.00
2019-02-18T07:17:46.443Z,61.80
2019-02-18T07:21:49.449Z,61.50
2019-02-18T07:25:52.454Z,60.40
2019-02-18T07:29:55.452Z,59.30
2019-02-18T07:33:58.452Z,58.20
2019-02-18T07:38:01.460Z,57.20
2019-02-18T07:42:04.453Z,55.50
2019-02-18T07:46:07.480Z,55.10
2019-02-18T07:50:20.385Z,53.30
2019-02-18T07:54:16.531Z,51.80
2019-02-18T07:58:19.526Z,48.60
2019-02-18T08:02:23.636Z,44.60
2019-02-18T08:06:26.645Z,42.60
2019-02-18T08:10:29.634Z,41.20
2019-02-18T08:14:34.407Z,39.20
2019-02-18T08:18:37.400Z,38.50
2019-02-18T08:22:43.431Z,35.60
2019-02-18T08:26:46.431Z,36.30
2019-02-18T08:30:49.458Z,35.00
2019-02-18T08:34:52.451Z,33.10
2019-02-18T08:38:55.466Z,32.80
2019-02-18T08:42:58.474Z,32.80
2019-02-18T08:47:03.524Z,31.60
2019-02-18T08:51:06.545Z,30.50
2019-02-18T08:55:11.739Z,30.00
2019-02-18T08:59:14.737Z,29.50
2019-02-18T09:03:17.739Z,29.90
2019-02-18T09:07:20.731Z,29.10
2019-02-18T09:11:23.731Z,28.70
2019-02-18T09:15:27.958Z,28.10
2019-02-18T09:19:30.960Z,27.60
2019-02-18T09:23:35.876Z,26.60
2019-02-18T09:27:38.874Z,26.10
2019-02-18T09:31:42.868Z,26.60
2019-02-18T09:35:46.158Z,26.30
2019-02-18T09:39:49.167Z,26.70
2019-02-18T09:43:52.176Z,27.20
2019-02-18T09:47:55.592Z,28.80
2019-02-18T09:51:58.618Z,29.60
2019-02-18T09:56:01.603Z,30.30
2019-02-18T10:00:09.919Z,29.80
2019-02-18T10:04:12.941Z,30.30
2019-02-18T10:08:15.943Z,30.40
2019-02-18T10:12:18.999Z,31.00
2019-02-18T10:16:23.025Z,31.50
2019-02-18T10:20:26.137Z,30.50
2019-02-18T10:24:29.147Z,31.00
2019-02-18T10:28:32.248Z,30.00
2019-02-18T10:32:35.243Z,29.80
2019-02-18T10:36:38.247Z,30.20
2019-02-18T10:40:41.240Z,30.70
2019-02-18T10:44:44.240Z,30.40
2019-02-18T10:48:47.259Z,29.80
2019-02-18T10:52:50.263Z,29.60
2019-02-18T10:56:53.800Z,30.10
2019-02-18T11:00:56.811Z,30.00
2019-02-18T11:04:59.837Z,30.60
2019-02-18T11:09:10.537Z,31.00
2019-02-18T11:13:13.527Z,30.10
2019-02-18T11:17:16.943Z,30.30
2019-02-18T11:21:19.947Z,30.50
2019-02-18T11:25:22.961Z,29.50
2019-02-18T11:29:25.972Z,30.30
2019-02-18T11:33:28.961Z,30.90
2019-02-18T11:37:31.989Z,31.20
2019-02-18T11:41:34.986Z,31.70
2019-02-18T11:45:38.335Z,30.80
2019-02-18T11:49:41.349Z,32.00
2019-02-18T11:53:44.335Z,31.40
2019-02-18T11:57:47.351Z,32.20
2019-02-18T12:01:51.351Z,31.00
2019-02-18T12:05:54.383Z,30.70
2019-02-18T12:09:58.381Z,30.90
2019-02-18T12:14:01.499Z,31.30
2019-02-18T12:18:06.307Z,30.80
2019-02-18T12:22:15.654Z,30.60
2019-02-18T12:26:18.706Z,30.50
2019-02-18T12:30:22.096Z,30.70
2019-02-18T12:34:25.105Z,31.10
2019-02-18T12:38:28.520Z,30.30
2019-02-18T12:42:31.545Z,30.10
2019-02-18T12:46:34.577Z,30.20
2019-02-18T12:50:37.568Z,30.60
2019-02-18T12:54:40.565Z,30.60
2019-02-18T12:58:54.409Z,30.60
2019-02-18T13:02:50.696Z,30.20
2019-02-18T13:06:53.838Z,30.50
2019-02-18T13:10:56.950Z,30.70
2019-02-18T13:15:00.052Z,30.30
2019-02-18T13:19:03.735Z,30.20
2019-02-18T13:23:06.839Z,30.20
2019-02-18T13:27:09.930Z,33.10
2019-02-18T13:31:13.930Z,30.40
2019-02-18T13:35:16.950Z,30.40
2019-02-18T13:39:19.947Z,32.60
2019-02-18T13:43:22.948Z,30.80
2019-02-18T13:47:28.511Z,30.10
2019-02-18T13:51:33.008Z,31.00
2019-02-18T13:55:36.108Z,31.20
2019-02-18T13:59:40.116Z,31.20
2019-02-18T14:03:43.223Z,30.40
2019-02-18T14:07:46.482Z,31.50
2019-02-18T14:11:49.533Z,30.60
2019-02-18T14:15:52.566Z,31.00
2019-02-18T14:19:56.602Z,31.50
2019-02-18T14:23:59.616Z,31.20
2019-02-18T14:28:02.658Z,30.80
2019-02-18T14:32:11.733Z,30.40
2019-02-18T14:36:14.863Z,30.40
2019-02-18T14:40:19.576Z,30.70
2019-02-18T14:44:22.579Z,30.40
2019-02-18T14:48:25.580Z,30.60
2019-02-18T14:52:28.686Z,30.80
2019-02-18T14:56:31.683Z,30.80
2019-02-18T15:00:34.911Z,31.30
2019-02-18T15:04:37.909Z,31.30
2019-02-18T15:08:40.914Z,30.90
2019-02-18T15:12:44.534Z,31.40
2019-02-18T15:16:47.553Z,31.70
2019-02-18T15:20:52.143Z,31.50
2019-02-18T15:24:55.161Z,32.30
2019-02-18T15:28:58.170Z,32.50
2019-02-18T15:33:01.176Z,32.70
2019-02-18T15:37:04.357Z,32.90
2019-02-18T15:41:07.554Z,33.50
2019-02-18T15:45:10.852Z,34.10
2019-02-18T15:49:14.848Z,34.40
2019-02-18T15:53:17.868Z,34.80
2019-02-18T15:57:20.969Z,35.20
2019-02-18T16:01:23.969Z,35.80
2019-02-18T16:05:26.963Z,36.90
2019-02-18T16:09:29.979Z,36.20
2019-02-18T16:13:33.484Z,36.30
2019-02-18T16:17:36.562Z,37.00
2019-02-18T16:21:41.426Z,37.70
2019-02-18T16:25:44.490Z,38.60
2019-02-18T16:29:49.537Z,39.40
2019-02-18T16:33:52.643Z,39.90
2019-02-18T16:37:55.715Z,40.40
2019-02-18T16:41:59.142Z,40.90
2019-02-18T16:46:02.185Z,40.50
2019-02-18T16:50:06.348Z,41.30
2019-02-18T16:54:09.386Z,41.90
2019-02-18T16:58:12.382Z,42.70
2019-02-18T17:02:15.451Z,42.90
2019-02-18T17:06:20.750Z,42.60
2019-02-18T17:10:29.753Z,42.70
2019-02-18T17:14:32.766Z,44.30
2019-02-18T17:18:42.527Z,44.00
2019-02-18T17:22:49.787Z,43.70
2019-02-18T17:26:52.826Z,44.00
2019-02-18T17:30:55.826Z,44.00
2019-02-18T17:34:58.941Z,44.60
2019-02-18T17:39:03.726Z,45.30
2019-02-18T17:43:07.141Z,45.50
2019-02-18T17:47:11.233Z,45.30
2019-02-18T17:51:14.745Z,45.80
2019-02-18T17:55:18.036Z,45.70
2019-02-18T17:59:21.137Z,46.20
2019-02-18T18:03:24.159Z,45.80
2019-02-18T18:07:27.217Z,45.00
2019-02-18T18:11:32.299Z,45.90
2019-02-18T18:15:35.379Z,46.10
2019-02-18T18:19:41.650Z,46.40
2019-02-18T18:23:45.419Z,46.60
2019-02-18T18:27:48.461Z,46.70
2019-02-18T18:31:51.476Z,46.80
2019-02-18T18:35:54.894Z,47.70
2019-02-18T18:39:59.297Z,47.90
2019-02-18T18:44:02.726Z,48.30
2019-02-18T18:48:05.810Z,48.50
2019-02-18T18:52:09.931Z,48.90
2019-02-18T18:56:16.113Z,49.60
2019-02-18T19:00:22.888Z,48.10
2019-02-18T19:04:26.405Z,48.60
2019-02-18T19:08:30.004Z,48.40
2019-02-18T19:12:33.201Z,48.10
2019-02-18T19:16:36.307Z,49.00
2019-02-18T19:20:39.699Z,49.30
2019-02-18T19:24:47.599Z,49.60
2019-02-18T19:28:51.477Z,49.80
2019-02-18T19:32:55.132Z,50.10
2019-02-18T19:37:05.415Z,50.50
2019-02-18T19:41:10.463Z,51.40
2019-02-18T19:45:15.867Z,51.60
2019-02-18T19:49:21.157Z,51.30
2019-02-18T19:53:24.388Z,51.50
2019-02-18T19:57:27.460Z,51.30
2019-02-18T20:01:31.577Z,51.20
2019-02-18T20:05:35.704Z,50.70
2019-02-18T20:09:38.800Z,50.40
2019-02-18T20:13:58.867Z,49.20
2019-02-18T20:17:59.676Z,48.80
2019-02-18T20:22:04.834Z,48.90
2019-02-18T20:26:08.924Z,49.10
2019-02-18T20:30:13.354Z,49.20
2019-02-18T20:34:16.833Z,49.20
2019-02-18T20:38:20.692Z,49.40
2019-02-18T20:42:23.680Z,49.20
2019-02-18T20:46:35.259Z,49.20
2019-02-18T20:50:39.559Z,49.00
2019-02-18T20:54:44.486Z,49.20
2019-02-18T20:58:47.829Z,49.40
2019-02-18T21:02:56.735Z,49.20
2019-02-18T21:06:59.738Z,49.00
2019-02-18T21:11:03.815Z,48.60
2019-02-18T21:15:08.163Z,48.40
2019-02-18T21:19:12.234Z,48.70
2019-02-18T21:23:15.640Z,48.80
2019-02-18T21:27:21.130Z,49.20
2019-02-18T21:31:25.191Z,48.70
2019-02-18T21:35:28.186Z,48.60
2019-02-18T21:39:32.207Z,48.70
2019-02-18T21:43:35.342Z,48.70
2019-02-18T21:47:38.347Z,48.90
2019-02-18T21:51:41.364Z,48.50
2019-02-18T21:55:44.362Z,48.40
2019-02-18T21:59:47.393Z,48.20
2019-02-18T22:03:50.395Z,48.20
2019-02-18T22:07:53.398Z,47.90
2019-02-18T22:11:56.401Z,47.50
2019-02-18T22:15:59.599Z,47.90
2019-02-18T22:20:04.621Z,47.00
2019-02-18T22:24:07.918Z,46.70
2019-02-18T22:28:11.133Z,46.80
2019-02-18T22:32:14.410Z,46.70
2019-02-18T22:36:17.417Z,46.70
2019-02-18T22:40:20.623Z,45.60
2019-02-18T22:44:23.646Z,46.60
2019-02-18T22:48:26.742Z,46.40
2019-02-18T22:52:29.743Z,46.20
2019-02-18T22:56:32.786Z,46.60
2019-02-18T23:00:58.976Z,46.40
2019-02-18T23:05:02.190Z,45.50
2019-02-18T23:09:07.714Z,45.60
2019-02-18T23:13:10.742Z,45.60
2019-02-18T23:17:14.061Z,46.80
2019-02-18T23:21:17.132Z,46.90
2019-02-18T23:25:20.138Z,47.00
2019-02-18T23:29:25.679Z,46.00
2019-02-18T23:33:28.675Z,46.90
2019-02-18T23:37:31.672Z,47.00
2019-02-18T23:41:34.679Z,46.30
2019-02-18T23:45:37.676Z,46.20
2019-02-18T23:49:40.667Z,46.40
2019-02-18T23:53:43.672Z,47.60
2019-02-18T23:57:46.659Z,47.50
